sensor_id;sensor_type;location;lat;lon;timestamp;temperature;humidity
2022;DHT22;1015;49.756;6.994;2023-02-26T00:02:26;-4.20;99.90
2022;DHT22;1015;49.756;6.994;2023-02-26T00:04:54;-4.40;99.90
2022;DHT22;1015;49.756;6.994;2023-02-26T00:07:21;-4.50;99.90
2022;DHT22;1015;49.756;6.994;2023-02-26T00:09:48;-4.60;99.90
2022;DHT22;1015;49.756;6.994;2023-02-26T00:12:15;-4.60;99.90
2022;DHT22;1015;49.756;6.994;2023-02-26T00:14:42;-4.60;99.90
2022;DHT22;1015;49.756;6.994;2023-02-26T00:17:25;-4.90;99.90
2022;DHT22;1015;49.756;6.994;2023-02-26T00:19:58;-4.80;99.90
2022;DHT22;1015;49.756;6.994;2023-02-26T00:22:25;-4.80;99.90
2022;DHT22;1015;49.756;6.994;2023-02-26T00:24:52;-4.80;99.90
2022;DHT22;1015;49.756;6.994;2023-02-26T00:27:19;-4.90;99.90
2022;DHT22;1015;49.756;6.994;2023-02-26T00:29:47;-4.70;99.90
2022;DHT22;1015;49.756;6.994;2023-02-26T00:32:14;-4.70;99.90
2022;DHT22;1015;49.756;6.994;2023-02-26T00:34:43;-4.80;99.90
2022;DHT22;1015;49.756;6.994;2023-02-26T00:37:22;-4.70;99.90
2022;DHT22;1015;49.756;6.994;2023-02-26T00:40:00;-4.90;99.90
2022;DHT22;1015;49.756;6.994;2023-02-26T00:42:30;-5.10;99.90
2022;DHT22;1015;49.756;6.994;2023-02-26T00:44:57;-5.00;99.90
2022;DHT22;1015;49.756;6.994;2023-02-26T00:47:28;-5.00;99.90
2022;DHT22;1015;49.756;6.994;2023-02-26T00:50:10;-4.90;99.90
2022;DHT22;1015;49.756;6.994;2023-02-26T00:52:45;-5.10;99.90
2022;DHT22;1015;49.756;6.994;2023-02-26T00:55:13;-5.20;99.90
2022;DHT22;1015;49.756;6.994;2023-02-26T00:57:40;-5.10;99.90
2022;DHT22;1015;49.756;6.994;2023-02-26T01:00:08;-4.80;99.90
2022;DHT22;1015;49.756;6.994;2023-02-26T01:02:37;-4.50;99.90
2022;DHT22;1015;49.756;6.994;2023-02-26T01:05:05;-4.20;99.90
2022;DHT22;1015;49.756;6.994;2023-02-26T01:07:40;-4.00;99.90
2022;DHT22;1015;49.756;6.994;2023-02-26T01:10:10;-3.60;99.90
2022;DHT22;1015;49.756;6.994;2023-02-26T01:12:38;-3.60;99.90
2022;DHT22;1015;49.756;6.994;2023-02-26T01:15:06;-3.40;99.90
2022;DHT22;1015;49.756;6.994;2023-02-26T01:17:37;-3.20;99.90
2022;DHT22;1015;49.756;6.994;2023-02-26T01:20:08;-3.20;99.90
2022;DHT22;1015;49.756;6.994;2023-02-26T01:22:41;-3.20;99.90
2022;DHT22;1015;49.756;6.994;2023-02-26T01:25:11;-3.20;99.90
2022;DHT22;1015;49.756;6.994;2023-02-26T01:27:39;-3.30;99.90
2022;DHT22;1015;49.756;6.994;2023-02-26T01:30:07;-3.20;99.90
2022;DHT22;1015;49.756;6.994;2023-02-26T01:32:42;-3.10;99.90
2022;DHT22;1015;49.756;6.994;2023-02-26T01:35:21;-3.10;99.90
2022;DHT22;1015;49.756;6.994;2023-02-26T01:37:55;-3.10;99.90
2022;DHT22;1015;49.756;6.994;2023-02-26T01:40:34;-3.00;99.90
2022;DHT22;1015;49.756;6.994;2023-02-26T01:43:07;-3.00;99.90
2022;DHT22;1015;49.756;6.994;2023-02-26T01:45:42;-3.00;99.90
2022;DHT22;1015;49.756;6.994;2023-02-26T01:48:19;-3.00;99.90
2022;DHT22;1015;49.756;6.994;2023-02-26T01:50:53;-2.90;99.90
2022;DHT22;1015;49.756;6.994;2023-02-26T01:53:23;-2.80;99.90
2022;DHT22;1015;49.756;6.994;2023-02-26T01:55:54;-2.70;99.90
2022;DHT22;1015;49.756;6.994;2023-02-26T01:58:22;-2.70;99.90
2022;DHT22;1015;49.756;6.994;2023-02-26T02:00:52;-2.70;99.90
2022;DHT22;1015;49.756;6.994;2023-02-26T02:03:19;-2.70;99.90
2022;DHT22;1015;49.756;6.994;2023-02-26T02:05:50;-2.80;99.90
2022;DHT22;1015;49.756;6.994;2023-02-26T02:08:19;-2.80;99.90
2022;DHT22;1015;49.756;6.994;2023-02-26T02:10:49;-2.80;99.90
2022;DHT22;1015;49.756;6.994;2023-02-26T02:13:24;-2.70;99.90
2022;DHT22;1015;49.756;6.994;2023-02-26T02:16:01;-2.80;99.90
2022;DHT22;1015;49.756;6.994;2023-02-26T02:18:36;-2.70;99.90
2022;DHT22;1015;49.756;6.994;2023-02-26T02:21:27;-2.70;99.90
2022;DHT22;1015;49.756;6.994;2023-02-26T02:23:57;-2.70;99.90
2022;DHT22;1015;49.756;6.994;2023-02-26T02:26:49;-2.80;99.90
2022;DHT22;1015;49.756;6.994;2023-02-26T02:29:48;-2.80;99.90
2022;DHT22;1015;49.756;6.994;2023-02-26T02:32:21;-2.80;99.90
2022;DHT22;1015;49.756;6.994;2023-02-26T02:34:54;-2.70;99.90
2022;DHT22;1015;49.756;6.994;2023-02-26T02:37:26;-2.70;99.90
2022;DHT22;1015;49.756;6.994;2023-02-26T02:39:57;-2.60;99.90
2022;DHT22;1015;49.756;6.994;2023-02-26T02:42:29;-2.50;99.90
2022;DHT22;1015;49.756;6.994;2023-02-26T02:44:59;-2.50;99.90
2022;DHT22;1015;49.756;6.994;2023-02-26T02:47:31;-2.40;99.90
2022;DHT22;1015;49.756;6.994;2023-02-26T02:50:04;-2.40;99.90
2022;DHT22;1015;49.756;6.994;2023-02-26T02:52:37;-2.40;99.90
2022;DHT22;1015;49.756;6.994;2023-02-26T02:55:10;-2.40;99.90
2022;DHT22;1015;49.756;6.994;2023-02-26T02:57:42;-2.40;99.90
2022;DHT22;1015;49.756;6.994;2023-02-26T03:00:11;-2.40;99.90
2022;DHT22;1015;49.756;6.994;2023-02-26T03:02:46;-2.40;99.90
2022;DHT22;1015;49.756;6.994;2023-02-26T03:05:15;-2.40;99.90
2022;DHT22;1015;49.756;6.994;2023-02-26T03:07:48;-2.40;99.90
2022;DHT22;1015;49.756;6.994;2023-02-26T03:10:16;-2.30;99.90
2022;DHT22;1015;49.756;6.994;2023-02-26T03:12:43;-2.30;99.90
2022;DHT22;1015;49.756;6.994;2023-02-26T03:15:11;-2.30;99.90
2022;DHT22;1015;49.756;6.994;2023-02-26T03:17:45;-2.40;99.90
2022;DHT22;1015;49.756;6.994;2023-02-26T03:20:20;-2.30;99.90
2022;DHT22;1015;49.756;6.994;2023-02-26T03:22:56;-2.30;99.90
2022;DHT22;1015;49.756;6.994;2023-02-26T03:25:32;-2.30;99.90
2022;DHT22;1015;49.756;6.994;2023-02-26T03:28:08;-2.30;99.90
2022;DHT22;1015;49.756;6.994;2023-02-26T03:30:38;-2.30;99.90
2022;DHT22;1015;49.756;6.994;2023-02-26T03:33:11;-2.30;99.90
2022;DHT22;1015;49.756;6.994;2023-02-26T03:35:46;-2.30;99.90
2022;DHT22;1015;49.756;6.994;2023-02-26T03:38:20;-2.30;99.90
2022;DHT22;1015;49.756;6.994;2023-02-26T03:40:54;-2.30;99.90
2022;DHT22;1015;49.756;6.994;2023-02-26T03:43:26;-2.30;99.90
2022;DHT22;1015;49.756;6.994;2023-02-26T03:46:00;-2.30;99.90
2022;DHT22;1015;49.756;6.994;2023-02-26T03:48:30;-2.30;99.90
2022;DHT22;1015;49.756;6.994;2023-02-26T03:51:03;-2.30;99.90
2022;DHT22;1015;49.756;6.994;2023-02-26T03:53:35;-2.40;99.90
2022;DHT22;1015;49.756;6.994;2023-02-26T03:56:08;-2.40;99.90
2022;DHT22;1015;49.756;6.994;2023-02-26T03:58:36;-2.50;99.90
2022;DHT22;1015;49.756;6.994;2023-02-26T04:01:08;-2.50;99.90
2022;DHT22;1015;49.756;6.994;2023-02-26T04:03:41;-2.50;99.90
2022;DHT22;1015;49.756;6.994;2023-02-26T04:06:11;-2.60;99.90
2022;DHT22;1015;49.756;6.994;2023-02-26T04:08:38;-2.60;99.90
2022;DHT22;1015;49.756;6.994;2023-02-26T04:11:08;-2.60;99.90
2022;DHT22;1015;49.756;6.994;2023-02-26T04:13:35;-2.60;99.90
2022;DHT22;1015;49.756;6.994;2023-02-26T04:16:03;-2.60;99.90
2022;DHT22;1015;49.756;6.994;2023-02-26T04:18:30;-2.60;99.90
2022;DHT22;1015;49.756;6.994;2023-02-26T04:20:58;-2.60;99.90
2022;DHT22;1015;49.756;6.994;2023-02-26T04:23:25;-2.60;99.90
2022;DHT22;1015;49.756;6.994;2023-02-26T04:25:52;-2.60;99.90
2022;DHT22;1015;49.756;6.994;2023-02-26T04:28:19;-2.60;99.90
2022;DHT22;1015;49.756;6.994;2023-02-26T04:30:46;-2.60;99.90
2022;DHT22;1015;49.756;6.994;2023-02-26T04:33:13;-2.60;99.90
2022;DHT22;1015;49.756;6.994;2023-02-26T04:35:41;-2.70;99.90
2022;DHT22;1015;49.756;6.994;2023-02-26T04:38:10;-2.70;99.90
2022;DHT22;1015;49.756;6.994;2023-02-26T04:40:36;-2.80;99.90
2022;DHT22;1015;49.756;6.994;2023-02-26T04:43:04;-2.90;99.90
2022;DHT22;1015;49.756;6.994;2023-02-26T04:45:31;-3.00;99.90
2022;DHT22;1015;49.756;6.994;2023-02-26T04:47:58;-3.10;99.90
2022;DHT22;1015;49.756;6.994;2023-02-26T04:50:25;-3.00;99.90
2022;DHT22;1015;49.756;6.994;2023-02-26T04:52:52;-3.10;99.90
2022;DHT22;1015;49.756;6.994;2023-02-26T04:55:20;-3.10;99.90
2022;DHT22;1015;49.756;6.994;2023-02-26T04:57:47;-3.20;99.90
2022;DHT22;1015;49.756;6.994;2023-02-26T05:00:15;-3.20;99.90
2022;DHT22;1015;49.756;6.994;2023-02-26T05:02:42;-3.10;99.90
2022;DHT22;1015;49.756;6.994;2023-02-26T05:05:09;-3.10;99.90
2022;DHT22;1015;49.756;6.994;2023-02-26T05:07:36;-3.10;99.90
2022;DHT22;1015;49.756;6.994;2023-02-26T05:10:05;-3.00;99.90
2022;DHT22;1015;49.756;6.994;2023-02-26T05:12:34;-3.00;99.90
2022;DHT22;1015;49.756;6.994;2023-02-26T05:15:01;-3.00;99.90
2022;DHT22;1015;49.756;6.994;2023-02-26T05:17:28;-3.00;99.90
2022;DHT22;1015;49.756;6.994;2023-02-26T05:19:55;-3.00;99.90
2022;DHT22;1015;49.756;6.994;2023-02-26T05:22:22;-3.00;99.90
2022;DHT22;1015;49.756;6.994;2023-02-26T05:24:48;-3.00;99.90
2022;DHT22;1015;49.756;6.994;2023-02-26T05:27:15;-3.00;99.90
2022;DHT22;1015;49.756;6.994;2023-02-26T05:29:44;-3.10;99.90
2022;DHT22;1015;49.756;6.994;2023-02-26T05:32:11;-3.20;99.90
2022;DHT22;1015;49.756;6.994;2023-02-26T05:34:38;-3.30;99.90
2022;DHT22;1015;49.756;6.994;2023-02-26T05:37:05;-3.30;99.90
2022;DHT22;1015;49.756;6.994;2023-02-26T05:39:31;-3.40;99.90
2022;DHT22;1015;49.756;6.994;2023-02-26T05:41:58;-3.40;99.90
2022;DHT22;1015;49.756;6.994;2023-02-26T05:44:25;-3.40;99.90
2022;DHT22;1015;49.756;6.994;2023-02-26T05:46:54;-3.50;99.90
2022;DHT22;1015;49.756;6.994;2023-02-26T05:49:21;-3.50;99.90
2022;DHT22;1015;49.756;6.994;2023-02-26T05:51:48;-3.50;99.90
2022;DHT22;1015;49.756;6.994;2023-02-26T05:54:14;-3.60;99.90
2022;DHT22;1015;49.756;6.994;2023-02-26T05:56:41;-3.60;99.90
2022;DHT22;1015;49.756;6.994;2023-02-26T05:59:08;-3.60;99.90
2022;DHT22;1015;49.756;6.994;2023-02-26T06:01:35;-3.60;99.90
2022;DHT22;1015;49.756;6.994;2023-02-26T06:04:04;-3.60;99.90
2022;DHT22;1015;49.756;6.994;2023-02-26T06:06:32;-3.70;99.90
2022;DHT22;1015;49.756;6.994;2023-02-26T06:08:59;-3.70;99.90
2022;DHT22;1015;49.756;6.994;2023-02-26T06:11:27;-3.70;99.90
2022;DHT22;1015;49.756;6.994;2023-02-26T06:13:54;-3.60;99.90
2022;DHT22;1015;49.756;6.994;2023-02-26T06:16:21;-3.60;99.90
2022;DHT22;1015;49.756;6.994;2023-02-26T06:18:48;-3.60;99.90
2022;DHT22;1015;49.756;6.994;2023-02-26T06:21:17;-3.50;99.90
2022;DHT22;1015;49.756;6.994;2023-02-26T06:23:44;-3.50;99.90
2022;DHT22;1015;49.756;6.994;2023-02-26T06:26:11;-3.50;99.90
2022;DHT22;1015;49.756;6.994;2023-02-26T06:28:38;-3.40;99.90
2022;DHT22;1015;49.756;6.994;2023-02-26T06:31:05;-3.40;99.90
2022;DHT22;1015;49.756;6.994;2023-02-26T06:33:32;-3.40;99.90
2022;DHT22;1015;49.756;6.994;2023-02-26T06:35:59;-3.40;99.90
2022;DHT22;1015;49.756;6.994;2023-02-26T06:38:28;-3.40;99.90
2022;DHT22;1015;49.756;6.994;2023-02-26T06:40:55;-3.40;99.90
2022;DHT22;1015;49.756;6.994;2023-02-26T06:43:22;-3.40;99.90
2022;DHT22;1015;49.756;6.994;2023-02-26T06:45:49;-3.40;99.90
2022;DHT22;1015;49.756;6.994;2023-02-26T06:48:16;-3.50;99.90
2022;DHT22;1015;49.756;6.994;2023-02-26T06:50:43;-3.50;99.90
2022;DHT22;1015;49.756;6.994;2023-02-26T06:53:10;-3.50;99.90
2022;DHT22;1015;49.756;6.994;2023-02-26T06:55:43;-3.50;99.90
2022;DHT22;1015;49.756;6.994;2023-02-26T06:58:11;-3.60;99.90
2022;DHT22;1015;49.756;6.994;2023-02-26T07:00:38;-3.50;99.90
2022;DHT22;1015;49.756;6.994;2023-02-26T07:03:06;-3.60;99.90
2022;DHT22;1015;49.756;6.994;2023-02-26T07:05:33;-3.60;99.90
2022;DHT22;1015;49.756;6.994;2023-02-26T07:07:59;-3.60;99.90
2022;DHT22;1015;49.756;6.994;2023-02-26T07:10:27;-3.70;99.90
2022;DHT22;1015;49.756;6.994;2023-02-26T07:12:55;-3.70;99.90
2022;DHT22;1015;49.756;6.994;2023-02-26T07:15:22;-3.70;99.90
2022;DHT22;1015;49.756;6.994;2023-02-26T07:17:49;-3.70;99.90
2022;DHT22;1015;49.756;6.994;2023-02-26T07:20:16;-3.60;99.90
2022;DHT22;1015;49.756;6.994;2023-02-26T07:22:43;-3.60;99.90
2022;DHT22;1015;49.756;6.994;2023-02-26T07:25:11;-3.50;99.90
2022;DHT22;1015;49.756;6.994;2023-02-26T07:27:38;-3.50;99.90
2022;DHT22;1015;49.756;6.994;2023-02-26T07:30:08;-3.60;99.90
2022;DHT22;1015;49.756;6.994;2023-02-26T07:32:35;-3.60;99.90
2022;DHT22;1015;49.756;6.994;2023-02-26T07:35:02;-3.70;99.90
2022;DHT22;1015;49.756;6.994;2023-02-26T07:37:29;-3.60;99.90
2022;DHT22;1015;49.756;6.994;2023-02-26T07:39:56;-3.60;99.90
2022;DHT22;1015;49.756;6.994;2023-02-26T07:42:23;-3.60;99.90
2022;DHT22;1015;49.756;6.994;2023-02-26T07:44:50;-3.60;99.90
2022;DHT22;1015;49.756;6.994;2023-02-26T07:47:18;-3.50;99.90
2022;DHT22;1015;49.756;6.994;2023-02-26T07:49:45;-3.30;99.90
2022;DHT22;1015;49.756;6.994;2023-02-26T07:52:12;-3.30;99.90
2022;DHT22;1015;49.756;6.994;2023-02-26T07:54:39;-3.20;99.90
2022;DHT22;1015;49.756;6.994;2023-02-26T07:57:06;-3.10;99.90
2022;DHT22;1015;49.756;6.994;2023-02-26T07:59:33;-3.10;99.90
2022;DHT22;1015;49.756;6.994;2023-02-26T08:02:00;-2.90;99.90
2022;DHT22;1015;49.756;6.994;2023-02-26T08:04:28;-2.80;99.90
2022;DHT22;1015;49.756;6.994;2023-02-26T08:06:57;-2.80;99.90
2022;DHT22;1015;49.756;6.994;2023-02-26T08:09:25;-2.80;99.90
2022;DHT22;1015;49.756;6.994;2023-02-26T08:11:53;-2.80;99.90
2022;DHT22;1015;49.756;6.994;2023-02-26T08:14:19;-2.90;99.90
2022;DHT22;1015;49.756;6.994;2023-02-26T08:16:47;-2.70;99.90
2022;DHT22;1015;49.756;6.994;2023-02-26T08:19:14;-2.70;99.90
2022;DHT22;1015;49.756;6.994;2023-02-26T08:21:42;-2.60;99.90
2022;DHT22;1015;49.756;6.994;2023-02-26T08:24:10;-2.60;99.90
2022;DHT22;1015;49.756;6.994;2023-02-26T08:26:37;-2.50;99.90
2022;DHT22;1015;49.756;6.994;2023-02-26T08:29:05;-2.70;99.90
2022;DHT22;1015;49.756;6.994;2023-02-26T08:31:33;-2.90;99.90
2022;DHT22;1015;49.756;6.994;2023-02-26T08:34:00;-2.90;99.90
2022;DHT22;1015;49.756;6.994;2023-02-26T08:36:27;-2.90;99.90
2022;DHT22;1015;49.756;6.994;2023-02-26T08:38:56;-2.90;99.90
2022;DHT22;1015;49.756;6.994;2023-02-26T08:41:23;-2.80;99.90
2022;DHT22;1015;49.756;6.994;2023-02-26T08:43:52;-2.80;99.90
2022;DHT22;1015;49.756;6.994;2023-02-26T08:46:19;-2.80;99.90
2022;DHT22;1015;49.756;6.994;2023-02-26T08:51:13;-2.90;99.90
2022;DHT22;1015;49.756;6.994;2023-02-26T08:53:40;-2.80;99.90
2022;DHT22;1015;49.756;6.994;2023-02-26T08:56:11;-2.70;99.90
2022;DHT22;1015;49.756;6.994;2023-02-26T08:58:38;-2.70;99.90
2022;DHT22;1015;49.756;6.994;2023-02-26T09:01:05;-2.70;99.90
2022;DHT22;1015;49.756;6.994;2023-02-26T09:03:32;-2.60;99.90
2022;DHT22;1015;49.756;6.994;2023-02-26T09:05:59;-2.70;99.90
2022;DHT22;1015;49.756;6.994;2023-02-26T09:08:26;-2.70;99.90
2022;DHT22;1015;49.756;6.994;2023-02-26T09:10:52;-2.70;99.90
2022;DHT22;1015;49.756;6.994;2023-02-26T09:13:21;-2.60;99.90
2022;DHT22;1015;49.756;6.994;2023-02-26T09:15:48;-2.40;99.90
2022;DHT22;1015;49.756;6.994;2023-02-26T09:18:15;-2.30;99.90
2022;DHT22;1015;49.756;6.994;2023-02-26T09:20:42;-2.20;99.90
2022;DHT22;1015;49.756;6.994;2023-02-26T09:23:10;-2.20;99.90
2022;DHT22;1015;49.756;6.994;2023-02-26T09:25:37;-2.10;99.90
2022;DHT22;1015;49.756;6.994;2023-02-26T09:28:04;-2.00;99.90
2022;DHT22;1015;49.756;6.994;2023-02-26T09:30:32;-2.10;99.90
2022;DHT22;1015;49.756;6.994;2023-02-26T09:32:59;-1.90;99.90
2022;DHT22;1015;49.756;6.994;2023-02-26T09:35:26;-1.70;99.90
2022;DHT22;1015;49.756;6.994;2023-02-26T09:37:53;-1.60;99.90
2022;DHT22;1015;49.756;6.994;2023-02-26T09:40:25;-1.80;99.90
2022;DHT22;1015;49.756;6.994;2023-02-26T09:43:05;-1.60;99.90
2022;DHT22;1015;49.756;6.994;2023-02-26T09:45:37;-1.90;99.90
2022;DHT22;1015;49.756;6.994;2023-02-26T09:48:05;-1.70;99.90
2022;DHT22;1015;49.756;6.994;2023-02-26T09:50:38;-1.80;99.90
2022;DHT22;1015;49.756;6.994;2023-02-26T09:53:14;-2.00;99.90
2022;DHT22;1015;49.756;6.994;2023-02-26T09:55:44;-1.90;99.90
2022;DHT22;1015;49.756;6.994;2023-02-26T09:58:18;-1.80;99.90
2022;DHT22;1015;49.756;6.994;2023-02-26T10:00:55;-1.80;99.90
2022;DHT22;1015;49.756;6.994;2023-02-26T10:03:29;-1.50;99.90
2022;DHT22;1015;49.756;6.994;2023-02-26T10:06:15;-1.20;99.90
2022;DHT22;1015;49.756;6.994;2023-02-26T10:08:50;-1.10;99.90
2022;DHT22;1015;49.756;6.994;2023-02-26T10:11:28;-1.20;99.90
2022;DHT22;1015;49.756;6.994;2023-02-26T10:14:02;-1.10;99.90
2022;DHT22;1015;49.756;6.994;2023-02-26T10:16:36;-1.00;99.90
2022;DHT22;1015;49.756;6.994;2023-02-26T10:19:06;-1.00;99.90
2022;DHT22;1015;49.756;6.994;2023-02-26T10:21:37;-1.10;99.90
2022;DHT22;1015;49.756;6.994;2023-02-26T10:24:13;-0.80;99.90
2022;DHT22;1015;49.756;6.994;2023-02-26T10:26:45;-1.00;99.90
2022;DHT22;1015;49.756;6.994;2023-02-26T10:29:21;-0.70;99.90
2022;DHT22;1015;49.756;6.994;2023-02-26T10:32:04;-1.00;99.90
2022;DHT22;1015;49.756;6.994;2023-02-26T10:34:35;-1.10;99.90
2022;DHT22;1015;49.756;6.994;2023-02-26T10:37:12;-0.70;99.90
2022;DHT22;1015;49.756;6.994;2023-02-26T10:39:47;-0.90;99.90
2022;DHT22;1015;49.756;6.994;2023-02-26T10:42:19;-0.70;99.90
2022;DHT22;1015;49.756;6.994;2023-02-26T10:44:54;-0.60;99.90
2022;DHT22;1015;49.756;6.994;2023-02-26T10:47:32;-0.60;99.90
2022;DHT22;1015;49.756;6.994;2023-02-26T10:50:03;-0.50;99.90
2022;DHT22;1015;49.756;6.994;2023-02-26T10:52:32;-0.50;99.90
2022;DHT22;1015;49.756;6.994;2023-02-26T10:57:50;-0.70;99.90
2022;DHT22;1015;49.756;6.994;2023-02-26T11:00:20;-0.50;99.90
2022;DHT22;1015;49.756;6.994;2023-02-26T11:02:51;-0.40;99.90
2022;DHT22;1015;49.756;6.994;2023-02-26T11:05:20;-0.50;99.90
2022;DHT22;1015;49.756;6.994;2023-02-26T11:07:50;-0.20;99.90
2022;DHT22;1015;49.756;6.994;2023-02-26T11:10:22;-0.10;99.90
2022;DHT22;1015;49.756;6.994;2023-02-26T11:12:50;-0.50;99.90
2022;DHT22;1015;49.756;6.994;2023-02-26T11:15:19;-0.50;99.90
2022;DHT22;1015;49.756;6.994;2023-02-26T11:17:53;-0.60;99.90
2022;DHT22;1015;49.756;6.994;2023-02-26T11:20:29;-0.70;99.90
2022;DHT22;1015;49.756;6.994;2023-02-26T11:22:57;-0.50;99.90
2022;DHT22;1015;49.756;6.994;2023-02-26T11:25:28;-0.50;99.90
2022;DHT22;1015;49.756;6.994;2023-02-26T11:28:00;-0.50;99.90
2022;DHT22;1015;49.756;6.994;2023-02-26T11:30:31;-0.50;99.90
2022;DHT22;1015;49.756;6.994;2023-02-26T11:33:14;-0.60;99.90
2022;DHT22;1015;49.756;6.994;2023-02-26T11:35:42;-0.50;99.90
2022;DHT22;1015;49.756;6.994;2023-02-26T11:38:17;-0.30;99.90
2022;DHT22;1015;49.756;6.994;2023-02-26T11:40:47;-0.20;99.90
2022;DHT22;1015;49.756;6.994;2023-02-26T11:43:16;-0.20;99.90
2022;DHT22;1015;49.756;6.994;2023-02-26T11:45:47;0.00;99.90
2022;DHT22;1015;49.756;6.994;2023-02-26T11:48:23;0.00;99.90
2022;DHT22;1015;49.756;6.994;2023-02-26T11:50:54;0.30;99.90
2022;DHT22;1015;49.756;6.994;2023-02-26T11:53:25;0.40;99.90
2022;DHT22;1015;49.756;6.994;2023-02-26T11:55:59;0.30;99.90
2022;DHT22;1015;49.756;6.994;2023-02-26T11:58:29;-0.10;99.90
2022;DHT22;1015;49.756;6.994;2023-02-26T12:00:58;0.00;99.90
2022;DHT22;1015;49.756;6.994;2023-02-26T12:03:31;-0.30;99.90
2022;DHT22;1015;49.756;6.994;2023-02-26T12:06:00;-0.20;99.90
2022;DHT22;1015;49.756;6.994;2023-02-26T12:08:31;-0.20;99.90
2022;DHT22;1015;49.756;6.994;2023-02-26T12:11:21;0.40;99.90
2022;DHT22;1015;49.756;6.994;2023-02-26T12:14:03;0.50;99.90
2022;DHT22;1015;49.756;6.994;2023-02-26T12:16:38;0.90;99.90
2022;DHT22;1015;49.756;6.994;2023-02-26T12:19:15;0.80;99.90
2022;DHT22;1015;49.756;6.994;2023-02-26T12:21:59;0.40;99.90
2022;DHT22;1015;49.756;6.994;2023-02-26T12:24:42;0.20;99.90
2022;DHT22;1015;49.756;6.994;2023-02-26T12:27:17;0.00;99.90
2022;DHT22;1015;49.756;6.994;2023-02-26T12:29:57;0.10;99.90
2022;DHT22;1015;49.756;6.994;2023-02-26T12:32:48;0.10;99.90
2022;DHT22;1015;49.756;6.994;2023-02-26T12:35:33;0.10;99.90
2022;DHT22;1015;49.756;6.994;2023-02-26T12:38:08;0.00;99.90
2022;DHT22;1015;49.756;6.994;2023-02-26T12:40:49;-0.10;99.90
2022;DHT22;1015;49.756;6.994;2023-02-26T12:43:29;-0.10;99.90
2022;DHT22;1015;49.756;6.994;2023-02-26T12:46:02;0.10;99.90
2022;DHT22;1015;49.756;6.994;2023-02-26T12:49:00;0.20;99.90
2022;DHT22;1015;49.756;6.994;2023-02-26T12:51:51;0.20;99.90
2022;DHT22;1015;49.756;6.994;2023-02-26T12:54:29;0.20;99.90
2022;DHT22;1015;49.756;6.994;2023-02-26T12:57:18;0.00;99.90
2022;DHT22;1015;49.756;6.994;2023-02-26T13:03:04;-0.30;99.90
2022;DHT22;1015;49.756;6.994;2023-02-26T13:06:01;-0.40;99.90
2022;DHT22;1015;49.756;6.994;2023-02-26T13:08:36;-0.30;99.90
2022;DHT22;1015;49.756;6.994;2023-02-26T13:11:15;-0.20;99.90
2022;DHT22;1015;49.756;6.994;2023-02-26T13:14:00;-0.10;99.90
2022;DHT22;1015;49.756;6.994;2023-02-26T13:16:41;0.00;99.90
2022;DHT22;1015;49.756;6.994;2023-02-26T13:19:19;0.00;99.90
2022;DHT22;1015;49.756;6.994;2023-02-26T13:21:50;-0.10;99.90
2022;DHT22;1015;49.756;6.994;2023-02-26T13:24:23;0.00;99.90
2022;DHT22;1015;49.756;6.994;2023-02-26T13:26:53;0.00;99.90
2022;DHT22;1015;49.756;6.994;2023-02-26T13:29:23;0.10;99.90
2022;DHT22;1015;49.756;6.994;2023-02-26T13:31:55;0.20;99.90
2022;DHT22;1015;49.756;6.994;2023-02-26T13:34:32;0.10;99.90
2022;DHT22;1015;49.756;6.994;2023-02-26T13:37:01;0.30;99.90
2022;DHT22;1015;49.756;6.994;2023-02-26T13:39:39;0.40;99.90
2022;DHT22;1015;49.756;6.994;2023-02-26T13:42:17;0.60;99.90
2022;DHT22;1015;49.756;6.994;2023-02-26T13:44:53;0.70;99.90
2022;DHT22;1015;49.756;6.994;2023-02-26T13:47:51;0.60;99.90
2022;DHT22;1015;49.756;6.994;2023-02-26T13:50:27;0.50;99.90
2022;DHT22;1015;49.756;6.994;2023-02-26T13:53:01;1.00;99.90
2022;DHT22;1015;49.756;6.994;2023-02-26T13:55:43;0.90;99.90
2022;DHT22;1015;49.756;6.994;2023-02-26T13:58:28;0.80;99.90
2022;DHT22;1015;49.756;6.994;2023-02-26T14:01:05;1.00;99.90
2022;DHT22;1015;49.756;6.994;2023-02-26T14:03:34;1.20;99.90
2022;DHT22;1015;49.756;6.994;2023-02-26T14:06:21;1.30;99.90
2022;DHT22;1015;49.756;6.994;2023-02-26T14:08:52;1.40;99.90
2022;DHT22;1015;49.756;6.994;2023-02-26T14:11:57;1.40;99.90
2022;DHT22;1015;49.756;6.994;2023-02-26T14:14:30;1.10;99.90
2022;DHT22;1015;49.756;6.994;2023-02-26T14:17:18;1.10;99.90
2022;DHT22;1015;49.756;6.994;2023-02-26T14:20:18;0.70;99.90
2022;DHT22;1015;49.756;6.994;2023-02-26T14:22:52;0.50;99.90
2022;DHT22;1015;49.756;6.994;2023-02-26T14:25:27;0.50;99.90
2022;DHT22;1015;49.756;6.994;2023-02-26T14:28:30;0.80;99.90
2022;DHT22;1015;49.756;6.994;2023-02-26T14:31:16;1.00;99.90
2022;DHT22;1015;49.756;6.994;2023-02-26T14:33:46;1.30;99.90
2022;DHT22;1015;49.756;6.994;2023-02-26T14:36:20;0.90;99.90
2022;DHT22;1015;49.756;6.994;2023-02-26T14:38:59;0.70;99.90
2022;DHT22;1015;49.756;6.994;2023-02-26T14:41:31;0.40;99.90
2022;DHT22;1015;49.756;6.994;2023-02-26T14:44:06;0.30;99.90
2022;DHT22;1015;49.756;6.994;2023-02-26T14:46:36;0.20;99.90
2022;DHT22;1015;49.756;6.994;2023-02-26T14:49:03;0.30;99.90
2022;DHT22;1015;49.756;6.994;2023-02-26T14:51:37;0.10;99.90
2022;DHT22;1015;49.756;6.994;2023-02-26T14:57:03;0.10;99.90
2022;DHT22;1015;49.756;6.994;2023-02-26T14:59:46;0.10;99.90
2022;DHT22;1015;49.756;6.994;2023-02-26T15:02:25;0.10;99.90
2022;DHT22;1015;49.756;6.994;2023-02-26T15:05:13;0.10;99.90
2022;DHT22;1015;49.756;6.994;2023-02-26T15:10:59;0.00;99.90
2022;DHT22;1015;49.756;6.994;2023-02-26T15:13:36;0.00;99.90
2022;DHT22;1015;49.756;6.994;2023-02-26T15:16:13;0.00;99.90
2022;DHT22;1015;49.756;6.994;2023-02-26T15:19:00;0.00;99.90
2022;DHT22;1015;49.756;6.994;2023-02-26T15:21:40;0.10;99.90
2022;DHT22;1015;49.756;6.994;2023-02-26T15:24:11;0.00;99.90
2022;DHT22;1015;49.756;6.994;2023-02-26T15:26:45;0.00;99.90
2022;DHT22;1015;49.756;6.994;2023-02-26T15:29:13;-0.10;99.90
2022;DHT22;1015;49.756;6.994;2023-02-26T15:31:50;0.00;99.90
2022;DHT22;1015;49.756;6.994;2023-02-26T15:34:19;0.00;99.90
2022;DHT22;1015;49.756;6.994;2023-02-26T15:36:49;-0.10;99.90
2022;DHT22;1015;49.756;6.994;2023-02-26T15:39:18;-0.10;99.90
2022;DHT22;1015;49.756;6.994;2023-02-26T15:41:47;-0.20;99.90
2022;DHT22;1015;49.756;6.994;2023-02-26T15:44:17;-0.30;99.90
2022;DHT22;1015;49.756;6.994;2023-02-26T15:46:51;-0.20;99.90
2022;DHT22;1015;49.756;6.994;2023-02-26T15:49:23;-0.10;99.90
2022;DHT22;1015;49.756;6.994;2023-02-26T15:51:51;-0.10;99.90
2022;DHT22;1015;49.756;6.994;2023-02-26T15:54:30;-0.10;99.90
2022;DHT22;1015;49.756;6.994;2023-02-26T15:56:59;-0.10;99.90
2022;DHT22;1015;49.756;6.994;2023-02-26T15:59:28;-0.10;99.90
2022;DHT22;1015;49.756;6.994;2023-02-26T16:02:00;-0.20;99.90
2022;DHT22;1015;49.756;6.994;2023-02-26T16:04:27;-0.10;99.90
2022;DHT22;1015;49.756;6.994;2023-02-26T16:06:56;-0.30;99.90
2022;DHT22;1015;49.756;6.994;2023-02-26T16:09:27;-0.40;99.90
2022;DHT22;1015;49.756;6.994;2023-02-26T16:11:56;-0.30;99.90
2022;DHT22;1015;49.756;6.994;2023-02-26T16:14:26;-0.30;99.90
2022;DHT22;1015;49.756;6.994;2023-02-26T16:16:54;-0.40;99.90
2022;DHT22;1015;49.756;6.994;2023-02-26T16:19:30;-0.40;99.90
2022;DHT22;1015;49.756;6.994;2023-02-26T16:22:01;-0.40;99.90
2022;DHT22;1015;49.756;6.994;2023-02-26T16:24:31;-0.40;99.90
2022;DHT22;1015;49.756;6.994;2023-02-26T16:27:01;-0.40;99.90
2022;DHT22;1015;49.756;6.994;2023-02-26T16:29:31;-0.50;99.90
2022;DHT22;1015;49.756;6.994;2023-02-26T16:32:01;-0.60;99.90
2022;DHT22;1015;49.756;6.994;2023-02-26T16:34:34;-0.60;99.90
2022;DHT22;1015;49.756;6.994;2023-02-26T16:37:23;-0.60;99.90
2022;DHT22;1015;49.756;6.994;2023-02-26T16:39:55;-0.60;99.90
2022;DHT22;1015;49.756;6.994;2023-02-26T16:42:33;-0.60;99.90
2022;DHT22;1015;49.756;6.994;2023-02-26T16:45:16;-0.60;99.90
2022;DHT22;1015;49.756;6.994;2023-02-26T16:47:48;-0.60;99.90
2022;DHT22;1015;49.756;6.994;2023-02-26T16:50:19;-0.60;99.90